Time;durP1;ratioP1;P1;durP2;ratioP2;P2;SDS_P1;SDS_P2;PMS_P1;PMS_P2;Temp;Humidity;BMP_temperature;BMP_pressure;BME280_temperature;BME280_humidity;BME280_pressure;Samples;Min_cycle;Max_cycle;Signal;HPM_P1;HPM_P2
2023/10/26 00:02:21;;;;;;;;;;;;;;;10.67;36.77;100544.13;5083386;28;19995;-66
2023/10/26 00:04:47;;;;;;;;;;;;;;;10.64;36.75;100537.25;5073074;28;19962;-66
2023/10/26 00:07:12;;;;;;;;;;;;;;;10.56;36.96;100537.41;5076152;28;19916;-67
2023/10/26 00:09:37;;;;;;;;;;;;;;;10.63;37.07;100539.13;5093072;28;19918;-67
2023/10/26 00:12:03;;;;;;;;;;;;;;;10.68;36.92;100530.50;5104742;28;19920;-66
2023/10/26 00:14:28;;;;;;;;;;;;;;;10.69;36.78;100536.69;5092932;28;19916;-66
2023/10/26 00:16:53;;;;;;;;;;;;;;;10.44;37.86;100537.91;5093289;28;20387;-66
2023/10/26 00:19:18;;;;;;;;;;;;;;;10.38;38.08;100527.09;5093064;28;19914;-67
2023/10/26 00:21:44;;;;;;;;;;;;;;;10.44;38.61;100529.03;5093502;28;19912;-67
2023/10/26 00:24:09;;;;;;;;;;;;;;;10.76;37.90;100519.59;5093189;28;19985;-68
2023/10/26 00:26:35;;;;;;;;;;;;;;;10.81;36.51;100524.41;5092960;28;20002;-68
2023/10/26 00:29:00;;;;;;;;;;;;;;;10.80;36.72;100512.81;5092825;28;19958;-68
2023/10/26 00:31:25;;;;;;;;;;;;;;;10.83;36.27;100519.69;5093225;28;20007;-68
2023/10/26 00:33:50;;;;;;;;;;;;;;;10.83;37.00;100522.38;5093049;28;20261;-68
2023/10/26 00:36:16;;;;;;;;;;;;;;;10.83;36.98;100517.81;5092471;28;20334;-68
2023/10/26 00:38:41;;;;;;;;;;;;;;;10.84;36.75;100521.31;5093108;28;20339;-68
2023/10/26 00:41:07;;;;;;;;;;;;;;;10.81;36.84;100521.72;5092823;28;19999;-68
2023/10/26 00:43:32;;;;;;;;;;;;;;;10.77;38.06;100515.91;5092805;28;19967;-68
2023/10/26 00:45:58;;;;;;;;;;;;;;;10.73;36.98;100519.16;5093046;28;19916;-68
2023/10/26 00:48:23;;;;;;;;;;;;;;;10.74;37.45;100518.16;5092905;28;19916;-68
2023/10/26 00:50:48;;;;;;;;;;;;;;;10.75;36.94;100514.44;5098625;28;19912;-68
2023/10/26 00:53:17;;;;;;;;;;;;;;;10.77;36.96;100513.22;5094914;28;19912;-68
2023/10/26 00:55:44;;;;;;;;;;;;;;;10.77;36.36;100509.69;5111741;28;19912;-67
2023/10/26 00:58:10;;;;;;;;;;;;;;;10.71;37.14;100518.53;5093692;28;19993;-68
2023/10/26 01:00:37;;;;;;;;;;;;;;;10.73;36.88;100511.94;5074734;28;19966;-67
2023/10/26 01:03:03;;;;;;;;;;;;;;;10.71;37.73;100515.84;5093275;28;19919;-67
2023/10/26 01:05:28;;;;;;;;;;;;;;;10.72;37.49;100514.84;5096436;28;19916;-67
2023/10/26 01:07:53;;;;;;;;;;;;;;;10.64;37.14;100511.25;5111887;28;19918;-67
2023/10/26 01:10:18;;;;;;;;;;;;;;;10.67;37.05;100509.19;5116114;28;20011;-67
2023/10/26 01:12:44;;;;;;;;;;;;;;;10.67;37.03;100506.53;5116536;28;19912;-67
2023/10/26 01:15:10;;;;;;;;;;;;;;;10.67;36.72;100509.19;5116623;28;19912;-67
2023/10/26 01:17:35;;;;;;;;;;;;;;;10.63;37.17;100501.53;5116610;28;19915;-67
2023/10/26 01:20:01;;;;;;;;;;;;;;;10.69;36.79;100494.53;5116438;28;20003;-67
2023/10/26 01:22:30;;;;;;;;;;;;;;;10.71;37.31;100494.34;5116334;28;20006;-67
2023/10/26 01:24:55;;;;;;;;;;;;;;;10.69;37.00;100499.91;5112069;28;20011;-67
2023/10/26 01:27:20;;;;;;;;;;;;;;;10.68;36.96;100487.53;5095888;28;19959;-67
2023/10/26 01:29:45;;;;;;;;;;;;;;;10.68;37.36;100490.22;5096212;28;19919;-67
2023/10/26 01:32:11;;;;;;;;;;;;;;;10.68;37.26;100490.22;5095871;28;19912;-67
2023/10/26 01:34:36;;;;;;;;;;;;;;;10.72;37.00;100496.03;5095741;28;20415;-67
2023/10/26 01:37:03;;;;;;;;;;;;;;;10.68;36.79;100497.41;5096249;28;19920;-67
2023/10/26 01:39:28;;;;;;;;;;;;;;;10.67;36.87;100495.78;5095943;28;19961;-67
2023/10/26 01:41:53;;;;;;;;;;;;;;;10.68;36.99;100495.59;5095558;28;20015;-67
2023/10/26 01:44:18;;;;;;;;;;;;;;;10.66;36.39;100486.91;5095771;28;19923;-67
2023/10/26 01:46:44;;;;;;;;;;;;;;;10.65;37.18;100491.41;5095801;28;20386;-67
2023/10/26 01:49:10;;;;;;;;;;;;;;;10.67;36.79;100490.41;5095484;28;20384;-67
2023/10/26 01:51:35;;;;;;;;;;;;;;;10.65;36.73;100493.28;5105140;28;20003;-67
2023/10/26 01:54:01;;;;;;;;;;;;;;;10.66;36.68;100484.22;5094777;28;19993;-67
2023/10/26 01:56:26;;;;;;;;;;;;;;;10.71;36.55;100486.28;5095311;28;19995;-67
2023/10/26 01:58:51;;;;;;;;;;;;;;;10.69;36.53;100482.97;5095374;28;19965;-67
2023/10/26 02:01:16;;;;;;;;;;;;;;;10.76;37.00;100481.19;5095021;28;19912;-67
2023/10/26 02:03:42;;;;;;;;;;;;;;;10.73;36.84;100481.56;5107051;28;19912;-67
2023/10/26 02:06:09;;;;;;;;;;;;;;;10.72;37.13;100477.22;5115590;28;19922;-67
2023/10/26 02:08:34;;;;;;;;;;;;;;;10.68;36.52;100478.63;5097664;28;20392;-67
2023/10/26 02:10:59;;;;;;;;;;;;;;;10.66;36.35;100473.47;5115264;28;19972;-67
2023/10/26 02:13:25;;;;;;;;;;;;;;;10.68;36.03;100482.16;5115803;28;19922;-67
2023/10/26 02:15:50;;;;;;;;;;;;;;;10.69;36.31;100482.97;5094642;28;20365;-67
2023/10/26 02:18:15;;;;;;;;;;;;;;;10.71;36.05;100478.25;5094956;28;19986;-67
2023/10/26 02:20:40;;;;;;;;;;;;;;;10.71;36.35;100480.94;5095398;28;19913;-67
2023/10/26 02:23:06;;;;;;;;;;;;;;;10.68;35.93;100479.47;5095256;28;20356;-67
2023/10/26 02:25:31;;;;;;;;;;;;;;;10.66;36.28;100470.78;5095054;28;19916;-67
2023/10/26 02:27:57;;;;;;;;;;;;;;;10.67;36.26;100463.53;5094826;28;19912;-67
2023/10/26 02:30:22;;;;;;;;;;;;;;;10.64;36.42;100470.13;5094342;28;20443;-66
2023/10/26 02:32:48;;;;;;;;;;;;;;;10.67;36.26;100466.22;5094800;28;20010;-67
2023/10/26 02:35:13;;;;;;;;;;;;;;;10.63;37.51;100463.91;5094600;28;19912;-67
2023/10/26 02:37:38;;;;;;;;;;;;;;;10.65;36.44;100459.19;5095059;28;19912;-67
2023/10/26 02:40:05;;;;;;;;;;;;;;;10.64;36.35;100454.00;5094460;28;19912;-67
2023/10/26 02:42:30;;;;;;;;;;;;;;;10.58;36.57;100452.09;5094705;28;20026;-67
2023/10/26 02:44:56;;;;;;;;;;;;;;;10.58;37.14;100446.72;5094648;28;20404;-67
2023/10/26 02:47:23;;;;;;;;;;;;;;;10.62;36.61;100448.84;5094497;28;19985;-67
2023/10/26 02:49:49;;;;;;;;;;;;;;;10.59;36.34;100443.84;5094481;28;20291;-67
2023/10/26 02:52:14;;;;;;;;;;;;;;;10.63;36.69;100442.44;5112457;28;19999;-67
2023/10/26 02:54:39;;;;;;;;;;;;;;;10.69;36.47;100442.69;5114635;28;19911;-67
2023/10/26 02:57:05;;;;;;;;;;;;;;;10.71;37.16;100443.31;5101694;28;20277;-67
2023/10/26 02:59:30;;;;;;;;;;;;;;;10.72;36.81;100445.00;5102383;28;19912;-67
2023/10/26 03:01:56;;;;;;;;;;;;;;;10.69;37.30;100431.94;5107977;28;19919;-67
2023/10/26 03:04:21;;;;;;;;;;;;;;;10.66;36.75;100438.56;5094165;28;20357;-67
2023/10/26 03:06:46;;;;;;;;;;;;;;;10.64;37.19;100444.09;5094328;28;19912;-67
2023/10/26 03:09:13;;;;;;;;;;;;;;;10.64;36.55;100438.75;5094427;28;19935;-67
2023/10/26 03:11:39;;;;;;;;;;;;;;;10.59;37.10;100427.75;5093913;28;19920;-67
2023/10/26 03:14:06;;;;;;;;;;;;;;;10.62;37.49;100422.00;5094546;28;19916;-67
2023/10/26 03:16:34;;;;;;;;;;;;;;;10.63;37.35;100433.56;5093919;28;19918;-67
2023/10/26 03:18:59;;;;;;;;;;;;;;;10.64;37.01;100433.38;5094060;28;20361;-67
2023/10/26 03:21:25;;;;;;;;;;;;;;;10.70;37.02;100433.59;5094075;28;19916;-67
2023/10/26 03:23:53;;;;;;;;;;;;;;;10.72;37.47;100434.25;5094008;28;19912;-67
2023/10/26 03:26:21;;;;;;;;;;;;;;;10.72;37.51;100432.38;5093845;28;19923;-67
2023/10/26 03:28:50;;;;;;;;;;;;;;;10.69;36.26;100421.19;5093792;28;19912;-66
2023/10/26 03:31:16;;;;;;;;;;;;;;;10.71;37.97;100427.22;5093797;28;19916;-66
2023/10/26 03:33:41;;;;;;;;;;;;;;;10.69;36.54;100426.56;5093846;28;19999;-65
2023/10/26 03:36:17;;;;;;;;;;;;;;;10.67;36.96;100425.94;5093742;28;19923;-66
2023/10/26 03:38:42;;;;;;;;;;;;;;;10.64;36.35;100424.47;5093701;28;19912;-66
2023/10/26 03:41:08;;;;;;;;;;;;;;;10.66;36.78;100422.44;5093544;28;19919;-66
2023/10/26 03:43:33;;;;;;;;;;;;;;;10.66;36.98;100427.81;5093597;28;19977;-67
2023/10/26 03:45:58;;;;;;;;;;;;;;;10.61;37.26;100419.50;5093347;28;19927;-66
2023/10/26 03:48:24;;;;;;;;;;;;;;;10.38;37.39;100422.41;5093896;28;20360;-66
2023/10/26 03:50:49;;;;;;;;;;;;;;;10.32;38.28;100425.84;5099894;28;19918;-67
2023/10/26 03:53:14;;;;;;;;;;;;;;;10.39;38.33;100427.56;5101757;28;19939;-67
2023/10/26 03:55:39;;;;;;;;;;;;;;;10.46;37.97;100416.91;5099715;28;19912;-67
2023/10/26 03:58:05;;;;;;;;;;;;;;;10.59;37.64;100422.38;5093533;28;19922;-67
2023/10/26 04:00:30;;;;;;;;;;;;;;;10.71;37.73;100416.47;5093348;28;19912;-67
2023/10/26 04:02:55;;;;;;;;;;;;;;;10.79;37.30;100414.47;5093278;28;19916;-66
2023/10/26 04:05:20;;;;;;;;;;;;;;;10.92;37.34;100411.03;5093456;28;20368;-66
2023/10/26 04:07:46;;;;;;;;;;;;;;;10.98;37.01;100409.41;5093293;28;19912;-66
2023/10/26 04:10:11;;;;;;;;;;;;;;;11.03;36.92;100399.72;5093268;28;19969;-66
2023/10/26 04:12:36;;;;;;;;;;;;;;;11.06;36.52;100405.75;5093420;28;19957;-66
2023/10/26 04:15:02;;;;;;;;;;;;;;;11.10;36.59;100398.94;5093446;28;19912;-67
2023/10/26 04:17:28;;;;;;;;;;;;;;;11.14;36.77;100401.00;5093417;28;20381;-66
2023/10/26 04:19:53;;;;;;;;;;;;;;;11.30;36.10;100397.16;5093708;28;19915;-66
2023/10/26 04:22:18;;;;;;;;;;;;;;;11.17;35.69;100394.44;5093347;28;20402;-67
2023/10/26 04:24:45;;;;;;;;;;;;;;;11.23;35.20;100391.75;5093428;28;20365;-66
2023/10/26 04:27:11;;;;;;;;;;;;;;;11.06;36.55;100386.94;5093445;28;19919;-66
2023/10/26 04:29:36;;;;;;;;;;;;;;;11.03;36.03;100396.19;5093651;28;19958;-66
2023/10/26 04:32:01;;;;;;;;;;;;;;;11.19;35.47;100398.56;5093529;28;20395;-67
2023/10/26 04:34:26;;;;;;;;;;;;;;;11.04;36.32;100398.69;5093125;28;19912;-67
2023/10/26 04:36:52;;;;;;;;;;;;;;;11.18;35.95;100394.22;5092991;28;19916;-66
2023/10/26 04:39:17;;;;;;;;;;;;;;;11.18;36.15;100396.06;5095925;28;19912;-66
2023/10/26 04:41:43;;;;;;;;;;;;;;;11.17;36.42;100389.88;5097010;28;19952;-67
2023/10/26 04:44:08;;;;;;;;;;;;;;;11.14;36.03;100384.88;5097109;28;19913;-67
2023/10/26 04:46:33;;;;;;;;;;;;;;;11.11;35.92;100387.16;5097109;28;19965;-67
2023/10/26 04:48:59;;;;;;;;;;;;;;;11.03;35.71;100383.63;5096774;28;19916;-67
2023/10/26 04:51:24;;;;;;;;;;;;;;;10.99;36.38;100379.63;5099503;28;19976;-67
2023/10/26 04:53:49;;;;;;;;;;;;;;;10.93;36.24;100380.44;5116565;28;19973;-67
2023/10/26 04:56:14;;;;;;;;;;;;;;;10.91;36.40;100376.31;5112004;28;20379;-67
2023/10/26 04:58:40;;;;;;;;;;;;;;;10.88;36.90;100380.19;5078723;28;19913;-67
2023/10/26 05:01:05;;;;;;;;;;;;;;;10.86;36.52;100379.56;5096576;28;20034;-67
2023/10/26 05:03:31;;;;;;;;;;;;;;;10.81;36.83;100373.97;5096515;28;19974;-67
2023/10/26 05:05:56;;;;;;;;;;;;;;;10.75;36.21;100374.75;5096571;28;19923;-67
2023/10/26 05:08:21;;;;;;;;;;;;;;;10.75;36.81;100374.75;5096353;28;19912;-67
2023/10/26 05:10:47;;;;;;;;;;;;;;;10.70;36.63;100378.03;5096222;28;19927;-67
2023/10/26 05:13:12;;;;;;;;;;;;;;;10.70;36.57;100372.66;5096338;28;19966;-67
2023/10/26 05:15:37;;;;;;;;;;;;;;;10.64;37.10;100371.59;5096083;28;19912;-67
2023/10/26 05:18:03;;;;;;;;;;;;;;;10.66;36.44;100374.09;5096274;28;19951;-67
2023/10/26 05:20:30;;;;;;;;;;;;;;;10.64;36.91;100371.59;5096146;28;19916;-67
2023/10/26 05:22:55;;;;;;;;;;;;;;;10.65;36.58;100378.63;5096175;28;19923;-68
2023/10/26 05:25:21;;;;;;;;;;;;;;;10.61;36.81;100381.91;5096059;28;19916;-67
2023/10/26 05:27:46;;;;;;;;;;;;;;;10.59;36.97;100382.09;5096152;28;19912;-66
2023/10/26 05:30:11;;;;;;;;;;;;;;;10.56;36.48;100376.28;5096119;28;19912;-67
2023/10/26 05:32:37;;;;;;;;;;;;;;;10.60;36.35;100370.31;5095988;28;20347;-67
2023/10/26 05:35:03;;;;;;;;;;;;;;;10.62;37.26;100370.13;5095857;28;20388;-67
2023/10/26 05:37:29;;;;;;;;;;;;;;;10.59;36.64;100359.78;5077626;28;19965;-67
2023/10/26 05:39:54;;;;;;;;;;;;;;;10.60;36.62;100369.50;5096093;28;20368;-67
2023/10/26 05:42:19;;;;;;;;;;;;;;;10.60;36.22;100373.00;5095779;28;20463;-67
2023/10/26 05:44:45;;;;;;;;;;;;;;;10.59;37.35;100373.22;5095864;28;19927;-67
2023/10/26 05:47:10;;;;;;;;;;;;;;;10.57;37.10;100373.41;5095663;28;19912;-67
2023/10/26 05:49:35;;;;;;;;;;;;;;;10.58;36.52;100376.91;5113597;28;19915;-67
2023/10/26 05:52:01;;;;;;;;;;;;;;;10.60;36.94;100369.50;5116037;28;19912;-67
2023/10/26 05:54:27;;;;;;;;;;;;;;;10.57;36.76;100377.97;5115446;28;20004;-66
2023/10/26 05:56:52;;;;;;;;;;;;;;;10.57;36.87;100365.34;5115519;28;19919;-67
2023/10/26 05:59:17;;;;;;;;;;;;;;;10.54;36.17;100371.09;5115831;28;20411;-67
2023/10/26 06:01:43;;;;;;;;;;;;;;;10.54;36.79;100370.28;5110694;28;20304;-67
2023/10/26 06:04:08;;;;;;;;;;;;;;;10.56;37.04;100373.59;5095160;28;20003;-67
2023/10/26 06:06:33;;;;;;;;;;;;;;;10.56;36.86;100379.78;5095169;28;19918;-67
2023/10/26 06:08:59;;;;;;;;;;;;;;;10.56;36.62;100374.41;5077115;28;19912;-67
2023/10/26 06:11:25;;;;;;;;;;;;;;;10.56;36.69;100369.03;5094963;28;19920;-67
2023/10/26 06:13:51;;;;;;;;;;;;;;;10.55;36.37;100370.09;5095244;28;19916;-67
2023/10/26 06:16:17;;;;;;;;;;;;;;;10.57;36.63;100368.03;5094730;28;19963;-67
2023/10/26 06:18:42;;;;;;;;;;;;;;;10.59;38.16;100368.66;5095002;28;19939;-67
2023/10/26 06:21:08;;;;;;;;;;;;;;;10.59;37.06;100360.59;5094815;28;19931;-67
2023/10/26 06:23:33;;;;;;;;;;;;;;;10.60;36.83;100364.94;5094804;28;19916;-67
2023/10/26 06:26:00;;;;;;;;;;;;;;;10.62;36.93;100360.22;5094456;28;19916;-68
2023/10/26 06:28:28;;;;;;;;;;;;;;;10.56;36.92;100363.69;5094443;28;19912;-68
2023/10/26 06:30:54;;;;;;;;;;;;;;;10.57;36.41;100356.47;5094681;28;20265;-68
2023/10/26 06:33:19;;;;;;;;;;;;;;;10.51;36.84;100359.91;5094673;28;19912;-68
2023/10/26 06:35:45;;;;;;;;;;;;;;;10.50;36.80;100356.41;5094585;28;19915;-67
2023/10/26 06:38:11;;;;;;;;;;;;;;;10.55;36.76;100358.50;5094576;28;19943;-68
2023/10/26 06:40:36;;;;;;;;;;;;;;;10.55;37.11;100348.59;5093964;28;19912;-68
2023/10/26 06:43:01;;;;;;;;;;;;;;;10.55;37.00;100353.97;5094304;28;20288;-65
2023/10/26 06:45:26;;;;;;;;;;;;;;;10.57;36.28;100359.16;5080504;28;19924;-64
2023/10/26 06:47:52;;;;;;;;;;;;;;;10.57;36.71;100351.94;5094433;28;19912;-64
2023/10/26 06:50:17;;;;;;;;;;;;;;;10.59;36.97;100352.56;5094217;28;19969;-65
2023/10/26 06:52:44;;;;;;;;;;;;;;;10.63;37.77;100353.00;5094399;28;19916;-65
2023/10/26 06:55:14;;;;;;;;;;;;;;;10.61;36.27;100347.00;5075798;28;20258;-65
2023/10/26 06:57:40;;;;;;;;;;;;;;;10.61;36.79;100345.13;5095829;28;19916;-64
2023/10/26 07:00:06;;;;;;;;;;;;;;;10.67;36.51;100345.38;5092046;28;19916;-64
2023/10/26 07:02:31;;;;;;;;;;;;;;;10.70;36.90;100339.59;5094082;28;20292;-64
2023/10/26 07:04:57;;;;;;;;;;;;;;;10.71;36.38;100346.63;5109596;28;19916;-66
2023/10/26 07:07:22;;;;;;;;;;;;;;;10.69;37.05;100348.69;5093092;28;19954;-67
2023/10/26 07:09:47;;;;;;;;;;;;;;;10.69;36.58;100346.00;5093107;28;19919;-67
2023/10/26 07:12:12;;;;;;;;;;;;;;;10.71;37.37;100346.63;5093334;28;20416;-67
2023/10/26 07:14:40;;;;;;;;;;;;;;;10.74;36.37;100343.56;5093152;28;19923;-69
2023/10/26 07:17:05;;;;;;;;;;;;;;;10.72;36.30;100345.63;5093912;28;20380;-69
2023/10/26 07:19:30;;;;;;;;;;;;;;;10.73;37.33;100345.41;5093749;28;19919;-68
2023/10/26 07:21:56;;;;;;;;;;;;;;;10.76;35.96;100344.19;5094187;28;19919;-68
2023/10/26 07:24:21;;;;;;;;;;;;;;;10.77;36.46;100351.19;5093571;28;19995;-68
2023/10/26 07:26:48;;;;;;;;;;;;;;;10.79;36.70;100352.69;5093673;28;19979;-68
2023/10/26 07:29:13;;;;;;;;;;;;;;;10.84;36.12;100352.06;5093753;28;19966;-66
2023/10/26 07:31:39;;;;;;;;;;;;;;;10.88;36.26;100352.50;5093812;28;19915;-66
2023/10/26 07:34:05;;;;;;;;;;;;;;;10.90;35.87;100347.75;5093828;28;20392;-67
2023/10/26 07:36:31;;;;;;;;;;;;;;;10.93;35.86;100355.44;5093703;28;19999;-68
2023/10/26 07:38:56;;;;;;;;;;;;;;;10.98;37.09;100344.94;5091886;28;19944;-64
2023/10/26 07:41:24;;;;;;;;;;;;;;;11.01;36.41;100342.69;5104417;28;20253;-64
2023/10/26 07:43:49;;;;;;;;;;;;;;;11.02;36.19;100338.94;5093569;28;20006;-64
2023/10/26 07:46:14;;;;;;;;;;;;;;;11.02;35.75;100341.63;5108434;28;19995;-67
2023/10/26 07:48:40;;;;;;;;;;;;;;;11.04;36.58;100339.56;5092259;28;19919;-65
2023/10/26 07:51:05;;;;;;;;;;;;;;;11.06;36.02;100331.31;5093416;28;20326;-65
2023/10/26 07:53:30;;;;;;;;;;;;;;;11.10;35.79;100334.44;5093624;28;19924;-65
2023/10/26 07:55:57;;;;;;;;;;;;;;;11.15;35.85;100340.88;5092806;28;20436;-65
2023/10/26 07:58:23;;;;;;;;;;;;;;;11.20;35.74;100334.91;5093386;28;19912;-66
2023/10/26 08:00:49;;;;;;;;;;;;;;;11.19;35.99;100333.22;5093320;28;19919;-65
2023/10/26 08:03:14;;;;;;;;;;;;;;;11.23;35.97;100332.59;5093218;28;19912;-64
2023/10/26 08:05:39;;;;;;;;;;;;;;;11.29;36.05;100335.53;5093518;28;19924;-65
2023/10/26 08:08:06;;;;;;;;;;;;;;;11.33;35.97;100331.41;5093757;28;19924;-65
2023/10/26 08:10:36;;;;;;;;;;;;;;;11.33;35.71;100337.63;5075102;28;19965;-65
2023/10/26 08:13:05;;;;;;;;;;;;;;;11.35;35.65;100337.44;5080525;28;20333;-65
2023/10/26 08:15:30;;;;;;;;;;;;;;;11.39;36.56;100331.44;5097735;28;19916;-65
2023/10/26 08:17:55;;;;;;;;;;;;;;;11.41;35.54;100334.75;5097361;28;19912;-65
2023/10/26 08:20:21;;;;;;;;;;;;;;;11.43;35.32;100338.06;5097706;28;19911;-66
2023/10/26 08:22:46;;;;;;;;;;;;;;;11.46;35.42;100331.47;5097677;28;19960;-65
2023/10/26 08:25:11;;;;;;;;;;;;;;;11.58;35.55;100331.69;5097138;28;20281;-65
2023/10/26 08:27:36;;;;;;;;;;;;;;;11.64;35.20;100330.88;5097060;28;19912;-65
2023/10/26 08:30:05;;;;;;;;;;;;;;;11.70;34.71;100324.69;5097235;28;19919;-65
2023/10/26 08:32:30;;;;;;;;;;;;;;;11.71;34.69;100322.81;5097068;28;20068;-65
2023/10/26 08:34:56;;;;;;;;;;;;;;;11.65;34.52;100320.97;5096879;28;19935;-65
2023/10/26 08:37:21;;;;;;;;;;;;;;;11.70;34.59;100326.53;5107613;28;19919;-65
2023/10/26 08:39:47;;;;;;;;;;;;;;;11.76;34.58;100323.88;5117176;28;19942;-65
2023/10/26 08:42:12;;;;;;;;;;;;;;;11.79;34.25;100326.16;5117263;28;20264;-65
2023/10/26 08:44:38;;;;;;;;;;;;;;;11.86;33.93;100314.56;5117343;28;19959;-65
2023/10/26 08:47:04;;;;;;;;;;;;;;;11.93;34.36;100318.13;5117534;27;19912;-65
2023/10/26 08:49:30;;;;;;;;;;;;;;;11.98;35.90;100313.78;5118555;28;19912;-65
2023/10/26 08:51:56;;;;;;;;;;;;;;;12.03;34.72;100315.00;5117898;28;20326;-64
2023/10/26 08:54:21;;;;;;;;;;;;;;;12.07;34.55;100308.19;5116873;28;19912;-65
2023/10/26 08:56:47;;;;;;;;;;;;;;;12.13;34.56;100315.44;5117080;28;20002;-65
2023/10/26 08:59:12;;;;;;;;;;;;;;;12.11;34.34;100312.94;5117034;28;19916;-65
2023/10/26 09:01:38;;;;;;;;;;;;;;;12.18;35.11;100308.41;5113281;28;19912;-65
2023/10/26 09:04:09;;;;;;;;;;;;;;;12.25;34.43;100307.56;5096347;28;19919;-65
2023/10/26 09:06:42;;;;;;;;;;;;;;;12.31;34.22;100317.47;5096258;28;19923;-65
2023/10/26 09:09:07;;;;;;;;;;;;;;;12.43;34.94;100310.44;5096283;28;19916;-65
2023/10/26 09:11:32;;;;;;;;;;;;;;;12.52;34.88;100308.34;5095963;28;20017;-64
2023/10/26 09:14:11;;;;;;;;;;;;;;;12.47;33.11;100300.88;5096403;28;19923;-65
2023/10/26 09:16:37;;;;;;;;;;;;;;;12.53;32.71;100301.91;5096358;28;19949;-65
2023/10/26 09:19:02;;;;;;;;;;;;;;;12.62;34.80;100297.13;5096184;28;19992;-65
2023/10/26 09:21:27;;;;;;;;;;;;;;;12.72;34.14;100305.59;5096006;28;20010;-65
2023/10/26 09:23:52;;;;;;;;;;;;;;;12.70;33.64;100302.28;5095570;28;19973;-65
2023/10/26 09:26:18;;;;;;;;;;;;;;;12.77;34.75;100305.78;5096219;28;19923;-65
2023/10/26 09:28:53;;;;;;;;;;;;;;;12.83;33.31;100298.72;5096222;28;20364;-65
2023/10/26 09:31:18;;;;;;;;;;;;;;;12.83;33.17;100291.47;5096072;28;19919;-64
2023/10/26 09:33:46;;;;;;;;;;;;;;;12.88;33.32;100293.53;5095802;28;20364;-65
2023/10/26 09:36:12;;;;;;;;;;;;;;;12.98;33.30;100296.59;5095869;28;20430;-64
2023/10/26 09:38:39;;;;;;;;;;;;;;;13.06;33.54;100292.84;5096002;28;19912;-64
2023/10/26 09:41:11;;;;;;;;;;;;;;;13.31;33.55;100290.25;5096099;28;19965;-65
2023/10/26 09:43:42;;;;;;;;;;;;;;;13.40;33.00;100282.75;5096468;28;19948;-64
2023/10/26 09:46:11;;;;;;;;;;;;;;;13.42;33.92;100286.84;5096642;28;19920;-64
2023/10/26 09:48:36;;;;;;;;;;;;;;;13.46;33.45;100279.16;5095829;28;19981;-64
2023/10/26 09:51:03;;;;;;;;;;;;;;;13.53;32.69;100274.56;5095966;28;19912;-65
2023/10/26 09:53:36;;;;;;;;;;;;;;;13.61;33.58;100276.97;5095699;28;19912;-65
2023/10/26 09:56:02;;;;;;;;;;;;;;;13.62;33.35;100277.81;5097740;28;19927;-65
2023/10/26 09:58:31;;;;;;;;;;;;;;;13.70;32.12;100272.97;5115724;28;19912;-65
2023/10/26 10:00:56;;;;;;;;;;;;;;;13.87;32.51;100275.97;5116057;28;20391;-65
2023/10/26 10:03:21;;;;;;;;;;;;;;;14.05;31.27;100271.66;5097079;28;19948;-65
2023/10/26 10:05:49;;;;;;;;;;;;;;;14.08;30.39;100260.44;5095687;28;20353;-65
2023/10/26 10:08:34;;;;;;;;;;;;;;;14.16;32.17;100262.84;5095057;28;19920;-65
2023/10/26 10:11:15;;;;;;;;;;;;;;;13.93;32.75;100258.91;5095147;28;20014;-65
2023/10/26 10:13:43;;;;;;;;;;;;;;;13.95;33.40;100261.38;5095224;28;20369;-65
2023/10/26 10:16:27;;;;;;;;;;;;;;;14.03;32.30;100258.38;5095256;28;19912;-65
2023/10/26 10:19:10;;;;;;;;;;;;;;;14.18;33.00;100254.53;5095043;28;19923;-65
2023/10/26 10:21:36;;;;;;;;;;;;;;;14.31;32.51;100252.50;5095175;28;20354;-65
2023/10/26 10:24:01;;;;;;;;;;;;;;;14.37;31.61;100249.97;5095418;28;19919;-65
2023/10/26 10:26:47;;;;;;;;;;;;;;;14.52;32.04;100248.56;5094918;28;19951;-65
2023/10/26 10:29:18;;;;;;;;;;;;;;;14.54;31.93;100242.91;5100218;28;19911;-65
2023/10/26 10:31:43;;;;;;;;;;;;;;;14.64;32.51;100239.72;5102629;28;19919;-65
2023/10/26 10:34:09;;;;;;;;;;;;;;;14.73;31.41;100241.06;5094844;28;19912;-65
2023/10/26 10:36:56;;;;;;;;;;;;;;;14.77;31.82;100236.03;5094059;28;19951;-65
2023/10/26 10:39:24;;;;;;;;;;;;;;;14.80;32.20;100232.88;5094547;28;19912;-66
2023/10/26 10:41:50;;;;;;;;;;;;;;;14.84;30.87;100234.91;5094903;28;19922;-66
2023/10/26 10:44:16;;;;;;;;;;;;;;;14.81;31.20;100223.72;5094431;28;20044;-65
2023/10/26 10:46:46;;;;;;;;;;;;;;;14.82;31.36;100228.03;5110605;28;19919;-65
2023/10/26 10:49:11;;;;;;;;;;;;;;;14.88;31.57;100230.69;5094875;28;20323;-65
2023/10/26 10:51:38;;;;;;;;;;;;;;;14.93;30.54;100226.47;5107248;28;19919;-65
2023/10/26 10:54:07;;;;;;;;;;;;;;;14.95;30.42;100224.34;5114482;28;19999;-65
2023/10/26 10:56:37;;;;;;;;;;;;;;;14.97;31.07;100219.53;5114611;28;19912;-65
2023/10/26 10:59:19;;;;;;;;;;;;;;;15.00;30.48;100214.50;5114710;28;20380;-65
2023/10/26 11:01:45;;;;;;;;;;;;;;;15.02;30.43;100219.69;5109749;28;19912;-65
2023/10/26 11:04:13;;;;;;;;;;;;;;;15.05;31.40;100214.66;5076574;28;19916;-65
2023/10/26 11:06:43;;;;;;;;;;;;;;;15.04;29.10;100218.41;5094303;28;20002;-65
2023/10/26 11:09:19;;;;;;;;;;;;;;;14.99;29.02;100212.00;5094280;28;20360;-64
2023/10/26 11:11:44;;;;;;;;;;;;;;;14.95;30.10;100210.81;5094010;28;20361;-64
2023/10/26 11:14:10;;;;;;;;;;;;;;;15.00;30.29;100209.09;5094122;28;19919;-64
2023/10/26 11:16:37;;;;;;;;;;;;;;;15.01;29.48;100210.75;5093803;28;19916;-65
2023/10/26 11:19:03;;;;;;;;;;;;;;;15.01;29.78;100209.94;5093791;28;19920;-65
2023/10/26 11:21:28;;;;;;;;;;;;;;;15.00;28.87;100197.47;5093864;28;19912;-65
2023/10/26 11:23:53;;;;;;;;;;;;;;;15.04;29.94;100201.34;5093634;28;19916;-65
2023/10/26 11:26:18;;;;;;;;;;;;;;;15.26;28.64;100202.47;5106215;28;19950;-65
2023/10/26 11:28:44;;;;;;;;;;;;;;;15.25;28.31;100191.91;5114137;28;19954;-65
2023/10/26 11:31:09;;;;;;;;;;;;;;;15.26;31.15;100198.94;5106462;28;19912;-65
2023/10/26 11:33:42;;;;;;;;;;;;;;;15.17;27.79;100192.22;5093590;28;19960;-64
2023/10/26 11:36:11;;;;;;;;;;;;;;;15.10;30.06;100189.63;5093729;28;19912;-64
2023/10/26 11:38:49;;;;;;;;;;;;;;;14.97;28.04;100179.81;5093680;28;20005;-65
2023/10/26 11:41:21;;;;;;;;;;;;;;;14.91;29.76;100180.72;5093693;28;20348;-64
2023/10/26 11:43:51;;;;;;;;;;;;;;;14.94;30.16;100184.88;5093945;28;19957;-64
2023/10/26 11:46:26;;;;;;;;;;;;;;;14.68;29.46;100184.16;5093785;28;19916;-64
2023/10/26 11:48:52;;;;;;;;;;;;;;;14.70;31.55;100182.03;5093718;28;19921;-65
2023/10/26 11:51:17;;;;;;;;;;;;;;;14.59;32.16;100189.03;5102976;28;19911;-65
2023/10/26 11:53:42;;;;;;;;;;;;;;;14.78;30.45;100176.31;5093233;28;19919;-64
2023/10/26 11:56:07;;;;;;;;;;;;;;;14.86;30.24;100169.78;5093320;28;20308;-64
2023/10/26 11:58:34;;;;;;;;;;;;;;;14.80;29.81;100179.63;5093214;28;19919;-65
2023/10/26 12:00:59;;;;;;;;;;;;;;;14.75;30.78;100182.19;5094022;28;19954;-65
2023/10/26 12:03:26;;;;;;;;;;;;;;;14.77;28.77;100179.28;5074564;28;19913;-65
2023/10/26 12:05:51;;;;;;;;;;;;;;;14.55;31.97;100179.72;5073377;28;19986;-65
2023/10/26 12:08:19;;;;;;;;;;;;;;;14.73;30.29;100172.66;5073158;28;19966;-65
2023/10/26 12:10:44;;;;;;;;;;;;;;;14.75;30.79;100167.88;5073465;28;19921;-65
2023/10/26 12:13:09;;;;;;;;;;;;;;;14.79;29.72;100175.28;5093610;28;19915;-65
2023/10/26 12:15:36;;;;;;;;;;;;;;;14.74;29.70;100175.13;5093201;28;19923;-65
2023/10/26 12:18:01;;;;;;;;;;;;;;;14.75;30.06;100171.38;5093340;28;19912;-65
2023/10/26 12:20:27;;;;;;;;;;;;;;;14.36;30.89;100119.47;5093208;28;19912;-65
2023/10/26 12:22:53;;;;;;;;;;;;;;;14.73;30.75;100168.09;5112180;28;19919;-65
2023/10/26 12:25:19;;;;;;;;;;;;;;;14.56;29.36;100167.00;5105556;28;19916;-66
2023/10/26 12:27:45;;;;;;;;;;;;;;;14.54;30.86;100167.22;5108627;28;19912;-65
2023/10/26 12:30:11;;;;;;;;;;;;;;;14.25;31.09;100160.75;5093202;28;19912;-65
2023/10/26 12:32:36;;;;;;;;;;;;;;;14.37;28.86;100171.63;5093194;28;19912;-65